sensor_id;sensor_type;location;lat;lon;timestamp;temperature;humidity
16958;DHT22;8595;52.542;11.974;2023-07-29T00:01:32;18.90;99.90
16958;DHT22;8595;52.542;11.974;2023-07-29T00:03:59;18.80;99.90
16958;DHT22;8595;52.542;11.974;2023-07-29T00:06:26;18.80;99.90
16958;DHT22;8595;52.542;11.974;2023-07-29T00:08:53;18.80;99.90
16958;DHT22;8595;52.542;11.974;2023-07-29T00:11:20;18.80;99.90
16958;DHT22;8595;52.542;11.974;2023-07-29T00:13:47;18.90;99.90
16958;DHT22;8595;52.542;11.974;2023-07-29T00:16:17;18.90;99.90
16958;DHT22;8595;52.542;11.974;2023-07-29T00:18:46;18.90;99.90
16958;DHT22;8595;52.542;11.974;2023-07-29T00:21:13;19.00;99.90
16958;DHT22;8595;52.542;11.974;2023-07-29T00:23:40;19.00;99.90
16958;DHT22;8595;52.542;11.974;2023-07-29T00:26:07;19.00;99.90
16958;DHT22;8595;52.542;11.974;2023-07-29T00:28:34;18.90;99.90
16958;DHT22;8595;52.542;11.974;2023-07-29T00:31:01;18.90;99.90
16958;DHT22;8595;52.542;11.974;2023-07-29T00:33:30;18.90;99.90
16958;DHT22;8595;52.542;11.974;2023-07-29T00:35:56;18.80;99.90
16958;DHT22;8595;52.542;11.974;2023-07-29T00:38:27;18.80;99.90
16958;DHT22;8595;52.542;11.974;2023-07-29T00:40:54;18.80;99.90
16958;DHT22;8595;52.542;11.974;2023-07-29T00:43:21;18.80;99.90
16958;DHT22;8595;52.542;11.974;2023-07-29T00:45:47;18.80;99.90
16958;DHT22;8595;52.542;11.974;2023-07-29T00:48:14;18.90;99.90
16958;DHT22;8595;52.542;11.974;2023-07-29T00:50:43;18.90;99.90
16958;DHT22;8595;52.542;11.974;2023-07-29T00:53:10;18.80;99.90
16958;DHT22;8595;52.542;11.974;2023-07-29T00:55:37;18.80;99.90
16958;DHT22;8595;52.542;11.974;2023-07-29T00:58:04;18.80;99.90
16958;DHT22;8595;52.542;11.974;2023-07-29T01:00:31;18.80;99.90
16958;DHT22;8595;52.542;11.974;2023-07-29T01:02:58;18.70;99.90
16958;DHT22;8595;52.542;11.974;2023-07-29T01:05:30;18.50;99.90
16958;DHT22;8595;52.542;11.974;2023-07-29T01:08:08;18.50;99.90
16958;DHT22;8595;52.542;11.974;2023-07-29T01:10:42;18.50;99.90
16958;DHT22;8595;52.542;11.974;2023-07-29T01:13:17;18.50;99.90
16958;DHT22;8595;52.542;11.974;2023-07-29T01:15:50;18.40;99.90
16958;DHT22;8595;52.542;11.974;2023-07-29T01:18:23;18.30;99.90
16958;DHT22;8595;52.542;11.974;2023-07-29T01:20:53;18.20;99.90
16958;DHT22;8595;52.542;11.974;2023-07-29T01:23:25;18.10;99.90
16958;DHT22;8595;52.542;11.974;2023-07-29T01:25:52;18.20;99.90
16958;DHT22;8595;52.542;11.974;2023-07-29T01:28:19;18.10;99.90
16958;DHT22;8595;52.542;11.974;2023-07-29T01:30:49;18.10;99.90
16958;DHT22;8595;52.542;11.974;2023-07-29T01:33:25;18.10;99.90
16958;DHT22;8595;52.542;11.974;2023-07-29T01:35:57;18.20;99.90
16958;DHT22;8595;52.542;11.974;2023-07-29T01:38:29;18.20;99.90
16958;DHT22;8595;52.542;11.974;2023-07-29T01:40:58;18.30;99.90
16958;DHT22;8595;52.542;11.974;2023-07-29T01:43:27;18.30;99.90
16958;DHT22;8595;52.542;11.974;2023-07-29T01:45:54;18.40;99.90
16958;DHT22;8595;52.542;11.974;2023-07-29T01:48:21;18.50;99.90
16958;DHT22;8595;52.542;11.974;2023-07-29T01:50:48;18.40;99.90
16958;DHT22;8595;52.542;11.974;2023-07-29T01:53:15;18.40;99.90
16958;DHT22;8595;52.542;11.974;2023-07-29T01:55:44;18.50;99.90
16958;DHT22;8595;52.542;11.974;2023-07-29T01:58:11;18.50;99.90
16958;DHT22;8595;52.542;11.974;2023-07-29T02:00:38;18.50;99.90
16958;DHT22;8595;52.542;11.974;2023-07-29T02:03:05;18.50;99.90
16958;DHT22;8595;52.542;11.974;2023-07-29T02:05:32;18.50;99.90
16958;DHT22;8595;52.542;11.974;2023-07-29T02:07:59;18.60;99.90
16958;DHT22;8595;52.542;11.974;2023-07-29T02:10:26;18.60;99.90
16958;DHT22;8595;52.542;11.974;2023-07-29T02:12:54;18.50;99.90
16958;DHT22;8595;52.542;11.974;2023-07-29T02:15:21;18.50;99.90
16958;DHT22;8595;52.542;11.974;2023-07-29T02:17:50;18.50;99.90
16958;DHT22;8595;52.542;11.974;2023-07-29T02:20:17;18.50;99.90
16958;DHT22;8595;52.542;11.974;2023-07-29T02:22:44;18.50;99.90
16958;DHT22;8595;52.542;11.974;2023-07-29T02:25:11;18.50;99.90
16958;DHT22;8595;52.542;11.974;2023-07-29T02:27:38;18.50;99.90
16958;DHT22;8595;52.542;11.974;2023-07-29T02:30:08;18.50;99.90
16958;DHT22;8595;52.542;11.974;2023-07-29T02:32:36;18.50;99.90
16958;DHT22;8595;52.542;11.974;2023-07-29T02:35:03;18.40;99.90
16958;DHT22;8595;52.542;11.974;2023-07-29T02:37:31;18.40;99.90
16958;DHT22;8595;52.542;11.974;2023-07-29T02:39:58;18.30;99.90
16958;DHT22;8595;52.542;11.974;2023-07-29T02:42:24;18.30;99.90
16958;DHT22;8595;52.542;11.974;2023-07-29T02:44:51;18.30;99.90
16958;DHT22;8595;52.542;11.974;2023-07-29T02:47:20;18.30;99.90
16958;DHT22;8595;52.542;11.974;2023-07-29T02:49:47;18.30;99.90
16958;DHT22;8595;52.542;11.974;2023-07-29T02:52:14;18.30;99.90
16958;DHT22;8595;52.542;11.974;2023-07-29T02:54:41;18.40;99.90
16958;DHT22;8595;52.542;11.974;2023-07-29T02:57:08;18.30;99.90
16958;DHT22;8595;52.542;11.974;2023-07-29T02:59:34;18.30;99.90
16958;DHT22;8595;52.542;11.974;2023-07-29T03:02:01;18.30;99.90
16958;DHT22;8595;52.542;11.974;2023-07-29T03:04:29;18.30;99.90
16958;DHT22;8595;52.542;11.974;2023-07-29T03:06:56;18.20;99.90
16958;DHT22;8595;52.542;11.974;2023-07-29T03:09:25;18.20;99.90
16958;DHT22;8595;52.542;11.974;2023-07-29T03:11:51;18.20;99.90
16958;DHT22;8595;52.542;11.974;2023-07-29T03:14:20;18.20;99.90
16958;DHT22;8595;52.542;11.974;2023-07-29T03:16:48;18.10;99.90
16958;DHT22;8595;52.542;11.974;2023-07-29T03:19:17;18.00;99.90
16958;DHT22;8595;52.542;11.974;2023-07-29T03:21:46;18.00;99.90
16958;DHT22;8595;52.542;11.974;2023-07-29T03:24:13;17.90;99.90
16958;DHT22;8595;52.542;11.974;2023-07-29T03:26:40;17.80;99.90
16958;DHT22;8595;52.542;11.974;2023-07-29T03:29:07;17.70;99.90
16958;DHT22;8595;52.542;11.974;2023-07-29T03:31:34;17.70;99.90
16958;DHT22;8595;52.542;11.974;2023-07-29T03:34:01;17.70;99.90
16958;DHT22;8595;52.542;11.974;2023-07-29T03:36:28;17.70;99.90
16958;DHT22;8595;52.542;11.974;2023-07-29T03:38:56;17.70;99.90
16958;DHT22;8595;52.542;11.974;2023-07-29T03:41:24;17.70;99.90
16958;DHT22;8595;52.542;11.974;2023-07-29T03:43:51;17.70;99.90
16958;DHT22;8595;52.542;11.974;2023-07-29T03:46:18;17.70;99.90
16958;DHT22;8595;52.542;11.974;2023-07-29T03:48:45;17.70;99.90
16958;DHT22;8595;52.542;11.974;2023-07-29T03:51:12;17.60;99.90
16958;DHT22;8595;52.542;11.974;2023-07-29T03:53:39;17.50;99.90
16958;DHT22;8595;52.542;11.974;2023-07-29T03:56:07;17.50;99.90
16958;DHT22;8595;52.542;11.974;2023-07-29T03:58:34;17.50;99.90
16958;DHT22;8595;52.542;11.974;2023-07-29T04:01:00;17.50;99.90
16958;DHT22;8595;52.542;11.974;2023-07-29T04:03:27;17.60;99.90
16958;DHT22;8595;52.542;11.974;2023-07-29T04:05:54;17.60;99.90
16958;DHT22;8595;52.542;11.974;2023-07-29T04:08:21;17.70;99.90
16958;DHT22;8595;52.542;11.974;2023-07-29T04:10:48;17.80;99.90
16958;DHT22;8595;52.542;11.974;2023-07-29T04:13:17;17.70;99.90
16958;DHT22;8595;52.542;11.974;2023-07-29T04:15:45;17.80;99.90
16958;DHT22;8595;52.542;11.974;2023-07-29T04:18:12;17.80;99.90
16958;DHT22;8595;52.542;11.974;2023-07-29T04:20:39;17.80;99.90
16958;DHT22;8595;52.542;11.974;2023-07-29T04:23:05;17.80;99.90
16958;DHT22;8595;52.542;11.974;2023-07-29T04:25:32;17.70;99.90
16958;DHT22;8595;52.542;11.974;2023-07-29T04:27:59;17.70;99.90
16958;DHT22;8595;52.542;11.974;2023-07-29T04:30:30;17.70;99.90
16958;DHT22;8595;52.542;11.974;2023-07-29T04:32:57;17.70;99.90
16958;DHT22;8595;52.542;11.974;2023-07-29T04:35:24;17.70;99.90
16958;DHT22;8595;52.542;11.974;2023-07-29T04:37:51;17.70;99.90
16958;DHT22;8595;52.542;11.974;2023-07-29T04:40:18;17.80;99.90
16958;DHT22;8595;52.542;11.974;2023-07-29T04:42:45;17.80;99.90
16958;DHT22;8595;52.542;11.974;2023-07-29T04:45:12;17.80;99.90
16958;DHT22;8595;52.542;11.974;2023-07-29T04:47:41;17.90;99.90
16958;DHT22;8595;52.542;11.974;2023-07-29T04:50:09;17.80;99.90
16958;DHT22;8595;52.542;11.974;2023-07-29T04:52:36;17.80;99.90
16958;DHT22;8595;52.542;11.974;2023-07-29T04:55:04;17.90;99.90
16958;DHT22;8595;52.542;11.974;2023-07-29T04:57:32;18.00;99.90
16958;DHT22;8595;52.542;11.974;2023-07-29T05:00:00;18.00;99.90
16958;DHT22;8595;52.542;11.974;2023-07-29T05:02:28;18.00;99.90
16958;DHT22;8595;52.542;11.974;2023-07-29T05:04:56;18.20;99.90
16958;DHT22;8595;52.542;11.974;2023-07-29T05:07:23;18.10;99.90
16958;DHT22;8595;52.542;11.974;2023-07-29T05:09:50;18.10;99.90
16958;DHT22;8595;52.542;11.974;2023-07-29T05:12:17;18.00;99.90
16958;DHT22;8595;52.542;11.974;2023-07-29T05:14:44;18.10;99.90
16958;DHT22;8595;52.542;11.974;2023-07-29T05:17:10;18.10;99.90
16958;DHT22;8595;52.542;11.974;2023-07-29T05:19:37;18.10;99.90
16958;DHT22;8595;52.542;11.974;2023-07-29T05:22:06;18.20;99.90
16958;DHT22;8595;52.542;11.974;2023-07-29T05:24:33;18.20;99.90
16958;DHT22;8595;52.542;11.974;2023-07-29T05:27:00;18.30;99.90
16958;DHT22;8595;52.542;11.974;2023-07-29T05:29:28;18.40;99.90
16958;DHT22;8595;52.542;11.974;2023-07-29T05:31:55;18.50;99.90
16958;DHT22;8595;52.542;11.974;2023-07-29T05:34:22;18.60;99.90
16958;DHT22;8595;52.542;11.974;2023-07-29T05:36:52;18.70;99.90
16958;DHT22;8595;52.542;11.974;2023-07-29T05:39:20;18.80;99.90
16958;DHT22;8595;52.542;11.974;2023-07-29T05:41:47;18.80;99.90
16958;DHT22;8595;52.542;11.974;2023-07-29T05:44:15;18.80;99.90
16958;DHT22;8595;52.542;11.974;2023-07-29T05:46:42;18.90;99.90
16958;DHT22;8595;52.542;11.974;2023-07-29T05:49:09;19.00;99.90
16958;DHT22;8595;52.542;11.974;2023-07-29T05:51:36;19.30;99.90
16958;DHT22;8595;52.542;11.974;2023-07-29T05:54:04;19.40;99.90
16958;DHT22;8595;52.542;11.974;2023-07-29T05:56:32;19.60;99.90
16958;DHT22;8595;52.542;11.974;2023-07-29T05:58:59;19.70;99.90
16958;DHT22;8595;52.542;11.974;2023-07-29T06:01:26;19.80;99.90
16958;DHT22;8595;52.542;11.974;2023-07-29T06:03:53;19.90;99.90
16958;DHT22;8595;52.542;11.974;2023-07-29T06:06:20;20.00;99.90
16958;DHT22;8595;52.542;11.974;2023-07-29T06:08:49;20.10;99.90
16958;DHT22;8595;52.542;11.974;2023-07-29T06:11:16;20.20;99.90
16958;DHT22;8595;52.542;11.974;2023-07-29T06:13:45;20.30;99.90
16958;DHT22;8595;52.542;11.974;2023-07-29T06:16:12;20.20;99.90
16958;DHT22;8595;52.542;11.974;2023-07-29T06:18:40;20.20;99.90
16958;DHT22;8595;52.542;11.974;2023-07-29T06:21:07;20.40;99.90
16958;DHT22;8595;52.542;11.974;2023-07-29T06:23:37;20.40;99.90
16958;DHT22;8595;52.542;11.974;2023-07-29T06:26:05;20.50;99.90
16958;DHT22;8595;52.542;11.974;2023-07-29T06:28:33;20.60;99.90
16958;DHT22;8595;52.542;11.974;2023-07-29T06:31:01;20.70;99.90
16958;DHT22;8595;52.542;11.974;2023-07-29T06:33:28;20.90;99.90
16958;DHT22;8595;52.542;11.974;2023-07-29T06:35:55;21.00;99.90
16958;DHT22;8595;52.542;11.974;2023-07-29T06:38:22;21.30;99.90
16958;DHT22;8595;52.542;11.974;2023-07-29T06:40:49;21.40;99.90
16958;DHT22;8595;52.542;11.974;2023-07-29T06:43:16;21.40;99.90
16958;DHT22;8595;52.542;11.974;2023-07-29T06:45:43;21.40;99.90
16958;DHT22;8595;52.542;11.974;2023-07-29T06:48:11;21.30;99.90
16958;DHT22;8595;52.542;11.974;2023-07-29T06:50:38;21.30;99.90
16958;DHT22;8595;52.542;11.974;2023-07-29T06:53:06;21.30;99.90
16958;DHT22;8595;52.542;11.974;2023-07-29T06:55:33;21.40;99.90
16958;DHT22;8595;52.542;11.974;2023-07-29T06:58:00;21.40;99.90
16958;DHT22;8595;52.542;11.974;2023-07-29T07:00:27;21.50;99.90
16958;DHT22;8595;52.542;11.974;2023-07-29T07:02:54;21.60;99.90
16958;DHT22;8595;52.542;11.974;2023-07-29T07:05:22;21.70;99.90
16958;DHT22;8595;52.542;11.974;2023-07-29T07:07:49;21.80;99.90
16958;DHT22;8595;52.542;11.974;2023-07-29T07:10:16;22.00;99.90
16958;DHT22;8595;52.542;11.974;2023-07-29T07:12:45;22.10;99.90
16958;DHT22;8595;52.542;11.974;2023-07-29T07:15:11;22.10;99.90
16958;DHT22;8595;52.542;11.974;2023-07-29T07:17:38;22.20;99.90
16958;DHT22;8595;52.542;11.974;2023-07-29T07:20:07;22.30;99.90
16958;DHT22;8595;52.542;11.974;2023-07-29T07:22:35;22.40;99.90
16958;DHT22;8595;52.542;11.974;2023-07-29T07:25:03;22.60;99.90
16958;DHT22;8595;52.542;11.974;2023-07-29T07:27:31;22.80;99.90
16958;DHT22;8595;52.542;11.974;2023-07-29T07:30:04;22.90;99.90
16958;DHT22;8595;52.542;11.974;2023-07-29T07:32:31;22.80;99.90
16958;DHT22;8595;52.542;11.974;2023-07-29T07:34:58;22.80;99.90
16958;DHT22;8595;52.542;11.974;2023-07-29T07:37:25;22.90;99.90
16958;DHT22;8595;52.542;11.974;2023-07-29T07:39:54;22.80;99.90
16958;DHT22;8595;52.542;11.974;2023-07-29T07:42:21;22.90;99.90
16958;DHT22;8595;52.542;11.974;2023-07-29T07:44:50;23.00;99.90
16958;DHT22;8595;52.542;11.974;2023-07-29T07:47:16;22.80;99.90
16958;DHT22;8595;52.542;11.974;2023-07-29T07:49:43;22.70;99.90
16958;DHT22;8595;52.542;11.974;2023-07-29T07:52:10;22.60;99.90
16958;DHT22;8595;52.542;11.974;2023-07-29T07:54:37;22.60;99.90
16958;DHT22;8595;52.542;11.974;2023-07-29T07:57:06;22.70;99.90
16958;DHT22;8595;52.542;11.974;2023-07-29T07:59:33;22.60;99.90
16958;DHT22;8595;52.542;11.974;2023-07-29T08:01:59;22.50;99.90
16958;DHT22;8595;52.542;11.974;2023-07-29T08:04:26;22.40;99.90
16958;DHT22;8595;52.542;11.974;2023-07-29T08:06:53;22.30;99.90
16958;DHT22;8595;52.542;11.974;2023-07-29T08:09:20;22.30;99.90
16958;DHT22;8595;52.542;11.974;2023-07-29T08:11:47;22.30;99.90
16958;DHT22;8595;52.542;11.974;2023-07-29T08:14:15;22.20;99.90
16958;DHT22;8595;52.542;11.974;2023-07-29T08:16:42;22.10;99.90
16958;DHT22;8595;52.542;11.974;2023-07-29T08:19:09;22.10;99.90
16958;DHT22;8595;52.542;11.974;2023-07-29T08:21:36;22.00;99.90
16958;DHT22;8595;52.542;11.974;2023-07-29T08:24:03;22.00;99.90
16958;DHT22;8595;52.542;11.974;2023-07-29T08:26:31;22.10;99.90
16958;DHT22;8595;52.542;11.974;2023-07-29T08:28:58;22.10;99.90
16958;DHT22;8595;52.542;11.974;2023-07-29T08:31:26;22.20;99.90
16958;DHT22;8595;52.542;11.974;2023-07-29T08:33:53;22.20;99.90
16958;DHT22;8595;52.542;11.974;2023-07-29T08:36:19;22.40;99.90
16958;DHT22;8595;52.542;11.974;2023-07-29T08:38:46;22.60;99.90
16958;DHT22;8595;52.542;11.974;2023-07-29T08:41:16;22.70;99.90
16958;DHT22;8595;52.542;11.974;2023-07-29T08:43:52;22.80;99.90
16958;DHT22;8595;52.542;11.974;2023-07-29T08:46:19;22.80;99.90
16958;DHT22;8595;52.542;11.974;2023-07-29T08:48:47;22.80;99.90
16958;DHT22;8595;52.542;11.974;2023-07-29T08:51:15;22.90;99.90
16958;DHT22;8595;52.542;11.974;2023-07-29T08:53:44;22.80;99.90
16958;DHT22;8595;52.542;11.974;2023-07-29T08:56:11;22.80;99.90
16958;DHT22;8595;52.542;11.974;2023-07-29T08:58:39;22.80;99.90
16958;DHT22;8595;52.542;11.974;2023-07-29T09:01:06;22.80;99.90
16958;DHT22;8595;52.542;11.974;2023-07-29T09:03:33;22.80;99.90
16958;DHT22;8595;52.542;11.974;2023-07-29T09:06:02;22.70;99.90
16958;DHT22;8595;52.542;11.974;2023-07-29T09:08:29;22.40;99.90
16958;DHT22;8595;52.542;11.974;2023-07-29T09:10:56;22.30;99.90
16958;DHT22;8595;52.542;11.974;2023-07-29T09:13:24;22.20;99.90
16958;DHT22;8595;52.542;11.974;2023-07-29T09:15:54;22.10;99.90
16958;DHT22;8595;52.542;11.974;2023-07-29T09:18:22;22.00;99.90
16958;DHT22;8595;52.542;11.974;2023-07-29T09:20:49;21.80;99.90
16958;DHT22;8595;52.542;11.974;2023-07-29T09:23:18;21.70;99.90
16958;DHT22;8595;52.542;11.974;2023-07-29T09:25:46;21.70;99.90
16958;DHT22;8595;52.542;11.974;2023-07-29T09:28:15;21.60;99.90
16958;DHT22;8595;52.542;11.974;2023-07-29T09:30:44;21.60;99.90
16958;DHT22;8595;52.542;11.974;2023-07-29T09:33:11;21.50;99.90
16958;DHT22;8595;52.542;11.974;2023-07-29T09:35:38;21.10;99.90
16958;DHT22;8595;52.542;11.974;2023-07-29T09:38:06;20.80;99.90
16958;DHT22;8595;52.542;11.974;2023-07-29T09:40:38;20.60;99.90
16958;DHT22;8595;52.542;11.974;2023-07-29T09:43:06;20.20;99.90
16958;DHT22;8595;52.542;11.974;2023-07-29T09:45:34;19.80;99.90
16958;DHT22;8595;52.542;11.974;2023-07-29T09:48:01;19.80;99.90
16958;DHT22;8595;52.542;11.974;2023-07-29T09:50:29;19.60;99.90
16958;DHT22;8595;52.542;11.974;2023-07-29T09:52:57;19.70;99.90
16958;DHT22;8595;52.542;11.974;2023-07-29T09:55:26;19.50;99.90
16958;DHT22;8595;52.542;11.974;2023-07-29T09:57:56;19.50;99.90
16958;DHT22;8595;52.542;11.974;2023-07-29T10:00:26;19.50;99.90
16958;DHT22;8595;52.542;11.974;2023-07-29T10:02:54;19.50;99.90
16958;DHT22;8595;52.542;11.974;2023-07-29T10:05:22;19.50;99.90
16958;DHT22;8595;52.542;11.974;2023-07-29T10:07:49;19.50;99.90
16958;DHT22;8595;52.542;11.974;2023-07-29T10:10:17;19.60;99.90
16958;DHT22;8595;52.542;11.974;2023-07-29T10:12:45;19.60;99.90
16958;DHT22;8595;52.542;11.974;2023-07-29T10:15:13;19.60;99.90
16958;DHT22;8595;52.542;11.974;2023-07-29T10:17:40;19.60;99.90
16958;DHT22;8595;52.542;11.974;2023-07-29T10:20:09;19.70;99.90
16958;DHT22;8595;52.542;11.974;2023-07-29T10:22:37;19.70;99.90
16958;DHT22;8595;52.542;11.974;2023-07-29T10:25:07;19.60;99.90
16958;DHT22;8595;52.542;11.974;2023-07-29T10:27:42;19.60;99.90
16958;DHT22;8595;52.542;11.974;2023-07-29T10:30:11;19.70;99.90
16958;DHT22;8595;52.542;11.974;2023-07-29T10:32:41;19.80;99.90
16958;DHT22;8595;52.542;11.974;2023-07-29T10:35:11;20.00;99.90
16958;DHT22;8595;52.542;11.974;2023-07-29T10:37:40;20.10;99.90
16958;DHT22;8595;52.542;11.974;2023-07-29T10:40:09;20.20;99.90
16958;DHT22;8595;52.542;11.974;2023-07-29T10:42:37;20.20;99.90
16958;DHT22;8595;52.542;11.974;2023-07-29T10:45:20;20.50;99.90
16958;DHT22;8595;52.542;11.974;2023-07-29T10:47:49;20.80;99.90
16958;DHT22;8595;52.542;11.974;2023-07-29T10:50:20;21.20;99.90
16958;DHT22;8595;52.542;11.974;2023-07-29T10:52:51;21.50;99.90
16958;DHT22;8595;52.542;11.974;2023-07-29T10:55:27;21.80;99.90
16958;DHT22;8595;52.542;11.974;2023-07-29T10:58:06;22.30;99.90
16958;DHT22;8595;52.542;11.974;2023-07-29T11:00:33;22.60;99.90
16958;DHT22;8595;52.542;11.974;2023-07-29T11:03:05;22.60;99.90
16958;DHT22;8595;52.542;11.974;2023-07-29T11:05:49;22.80;99.90
16958;DHT22;8595;52.542;11.974;2023-07-29T11:08:17;22.80;99.90
16958;DHT22;8595;52.542;11.974;2023-07-29T11:10:58;23.10;99.90
16958;DHT22;8595;52.542;11.974;2023-07-29T11:13:26;23.40;99.90
16958;DHT22;8595;52.542;11.974;2023-07-29T11:15:54;23.70;99.90
16958;DHT22;8595;52.542;11.974;2023-07-29T11:18:27;23.80;99.90
16958;DHT22;8595;52.542;11.974;2023-07-29T11:20:54;23.80;99.90
16958;DHT22;8595;52.542;11.974;2023-07-29T11:23:29;23.70;99.90
16958;DHT22;8595;52.542;11.974;2023-07-29T11:25:56;23.40;99.90
16958;DHT22;8595;52.542;11.974;2023-07-29T11:28:24;23.40;99.90
16958;DHT22;8595;52.542;11.974;2023-07-29T11:30:51;23.30;99.90
16958;DHT22;8595;52.542;11.974;2023-07-29T11:33:20;23.40;99.90
16958;DHT22;8595;52.542;11.974;2023-07-29T11:35:49;23.60;99.90
16958;DHT22;8595;52.542;11.974;2023-07-29T11:38:16;23.90;99.90
16958;DHT22;8595;52.542;11.974;2023-07-29T11:40:53;24.30;99.90
16958;DHT22;8595;52.542;11.974;2023-07-29T11:43:20;24.60;99.90
16958;DHT22;8595;52.542;11.974;2023-07-29T11:45:47;24.60;99.90
16958;DHT22;8595;52.542;11.974;2023-07-29T11:48:13;24.40;99.90
16958;DHT22;8595;52.542;11.974;2023-07-29T11:50:40;24.20;99.90
16958;DHT22;8595;52.542;11.974;2023-07-29T11:53:10;24.00;99.90
16958;DHT22;8595;52.542;11.974;2023-07-29T11:55:37;23.90;99.90
16958;DHT22;8595;52.542;11.974;2023-07-29T11:58:04;24.00;99.90
16958;DHT22;8595;52.542;11.974;2023-07-29T12:00:31;23.90;99.90
16958;DHT22;8595;52.542;11.974;2023-07-29T12:03:00;24.00;99.90
16958;DHT22;8595;52.542;11.974;2023-07-29T12:05:27;24.20;99.90
16958;DHT22;8595;52.542;11.974;2023-07-29T12:07:54;24.30;99.90
16958;DHT22;8595;52.542;11.974;2023-07-29T12:10:22;24.30;99.90
16958;DHT22;8595;52.542;11.974;2023-07-29T12:12:50;25.00;99.90
16958;DHT22;8595;52.542;11.974;2023-07-29T12:15:23;25.80;99.90
16958;DHT22;8595;52.542;11.974;2023-07-29T12:17:54;26.00;99.90
16958;DHT22;8595;52.542;11.974;2023-07-29T12:20:22;26.00;99.90
16958;DHT22;8595;52.542;11.974;2023-07-29T12:22:53;26.00;99.90
16958;DHT22;8595;52.542;11.974;2023-07-29T12:25:21;26.40;99.90
16958;DHT22;8595;52.542;11.974;2023-07-29T12:27:48;27.10;99.90
16958;DHT22;8595;52.542;11.974;2023-07-29T12:30:15;27.30;99.90
16958;DHT22;8595;52.542;11.974;2023-07-29T12:32:46;27.20;99.90
16958;DHT22;8595;52.542;11.974;2023-07-29T12:35:13;27.10;99.90
16958;DHT22;8595;52.542;11.974;2023-07-29T12:37:40;26.80;99.90
16958;DHT22;8595;52.542;11.974;2023-07-29T12:40:21;26.50;99.90
16958;DHT22;8595;52.542;11.974;2023-07-29T12:42:49;26.00;99.90
16958;DHT22;8595;52.542;11.974;2023-07-29T12:45:16;25.70;99.90
16958;DHT22;8595;52.542;11.974;2023-07-29T12:47:44;25.30;99.90
16958;DHT22;8595;52.542;11.974;2023-07-29T12:50:11;25.00;99.90
16958;DHT22;8595;52.542;11.974;2023-07-29T12:52:38;24.80;99.90
16958;DHT22;8595;52.542;11.974;2023-07-29T12:55:06;24.70;99.90
16958;DHT22;8595;52.542;11.974;2023-07-29T12:57:35;24.40;99.90
16958;DHT22;8595;52.542;11.974;2023-07-29T13:00:03;24.50;99.90
16958;DHT22;8595;52.542;11.974;2023-07-29T13:02:31;24.40;99.90
16958;DHT22;8595;52.542;11.974;2023-07-29T13:04:57;24.50;99.90
16958;DHT22;8595;52.542;11.974;2023-07-29T13:07:24;24.80;99.90
16958;DHT22;8595;52.542;11.974;2023-07-29T13:09:51;25.00;99.90
16958;DHT22;8595;52.542;11.974;2023-07-29T13:12:18;24.80;99.90
16958;DHT22;8595;52.542;11.974;2023-07-29T13:14:46;24.90;99.90
16958;DHT22;8595;52.542;11.974;2023-07-29T13:17:13;24.80;99.90
16958;DHT22;8595;52.542;11.974;2023-07-29T13:19:40;24.40;99.90
16958;DHT22;8595;52.542;11.974;2023-07-29T13:22:09;24.20;99.90
16958;DHT22;8595;52.542;11.974;2023-07-29T13:24:36;23.80;99.90
16958;DHT22;8595;52.542;11.974;2023-07-29T13:27:05;23.70;99.90
16958;DHT22;8595;52.542;11.974;2023-07-29T13:29:32;23.40;99.90
16958;DHT22;8595;52.542;11.974;2023-07-29T13:32:01;23.00;99.90
16958;DHT22;8595;52.542;11.974;2023-07-29T13:34:28;22.60;99.90
16958;DHT22;8595;52.542;11.974;2023-07-29T13:36:54;22.30;99.90
16958;DHT22;8595;52.542;11.974;2023-07-29T13:39:21;22.30;99.90
16958;DHT22;8595;52.542;11.974;2023-07-29T13:41:48;22.20;99.90
16958;DHT22;8595;52.542;11.974;2023-07-29T13:44:15;22.20;99.90
16958;DHT22;8595;52.542;11.974;2023-07-29T13:46:42;22.30;99.90
16958;DHT22;8595;52.542;11.974;2023-07-29T13:49:12;22.20;99.90
16958;DHT22;8595;52.542;11.974;2023-07-29T13:51:39;22.00;99.90
16958;DHT22;8595;52.542;11.974;2023-07-29T13:54:05;21.70;99.90
16958;DHT22;8595;52.542;11.974;2023-07-29T13:56:32;21.60;99.90
16958;DHT22;8595;52.542;11.974;2023-07-29T13:59:00;21.60;99.90
16958;DHT22;8595;52.542;11.974;2023-07-29T14:01:27;21.60;99.90
16958;DHT22;8595;52.542;11.974;2023-07-29T14:03:54;21.70;99.90
16958;DHT22;8595;52.542;11.974;2023-07-29T14:06:22;21.50;99.90
16958;DHT22;8595;52.542;11.974;2023-07-29T14:08:49;21.00;99.90
16958;DHT22;8595;52.542;11.974;2023-07-29T14:11:16;20.80;99.90
16958;DHT22;8595;52.542;11.974;2023-07-29T14:13:43;20.70;99.90
16958;DHT22;8595;52.542;11.974;2023-07-29T14:16:10;21.00;99.90
16958;DHT22;8595;52.542;11.974;2023-07-29T14:18:37;21.40;99.90
16958;DHT22;8595;52.542;11.974;2023-07-29T14:21:05;21.90;99.90
16958;DHT22;8595;52.542;11.974;2023-07-29T14:23:33;22.10;99.90
16958;DHT22;8595;52.542;11.974;2023-07-29T14:26:00;22.40;99.90
16958;DHT22;8595;52.542;11.974;2023-07-29T14:28:26;22.70;99.90
16958;DHT22;8595;52.542;11.974;2023-07-29T14:30:53;22.80;99.90
16958;DHT22;8595;52.542;11.974;2023-07-29T14:33:20;22.90;99.90
16958;DHT22;8595;52.542;11.974;2023-07-29T14:35:47;23.00;99.90
16958;DHT22;8595;52.542;11.974;2023-07-29T14:38:14;23.20;99.90
16958;DHT22;8595;52.542;11.974;2023-07-29T14:40:42;23.50;99.90
16958;DHT22;8595;52.542;11.974;2023-07-29T14:43:09;24.20;99.90
16958;DHT22;8595;52.542;11.974;2023-07-29T14:45:36;24.90;99.90
16958;DHT22;8595;52.542;11.974;2023-07-29T14:48:03;25.80;99.90
16958;DHT22;8595;52.542;11.974;2023-07-29T14:50:31;26.40;99.90
16958;DHT22;8595;52.542;11.974;2023-07-29T14:52:58;26.00;99.90
16958;DHT22;8595;52.542;11.974;2023-07-29T14:55:24;26.00;99.90
16958;DHT22;8595;52.542;11.974;2023-07-29T14:57:53;26.40;99.90
16958;DHT22;8595;52.542;11.974;2023-07-29T15:00:22;26.80;99.90
16958;DHT22;8595;52.542;11.974;2023-07-29T15:02:49;26.80;99.90
16958;DHT22;8595;52.542;11.974;2023-07-29T15:05:16;26.60;99.90
16958;DHT22;8595;52.542;11.974;2023-07-29T15:07:44;26.70;99.90
16958;DHT22;8595;52.542;11.974;2023-07-29T15:10:14;26.80;99.90
16958;DHT22;8595;52.542;11.974;2023-07-29T15:12:41;27.20;99.90
16958;DHT22;8595;52.542;11.974;2023-07-29T15:15:11;27.80;99.90
16958;DHT22;8595;52.542;11.974;2023-07-29T15:17:38;28.20;99.90
16958;DHT22;8595;52.542;11.974;2023-07-29T15:20:06;28.00;99.90
16958;DHT22;8595;52.542;11.974;2023-07-29T15:22:33;28.00;99.90
16958;DHT22;8595;52.542;11.974;2023-07-29T15:25:04;28.30;99.90
16958;DHT22;8595;52.542;11.974;2023-07-29T15:27:31;28.60;99.90
16958;DHT22;8595;52.542;11.974;2023-07-29T15:29:58;28.70;99.90
16958;DHT22;8595;52.542;11.974;2023-07-29T15:32:26;28.70;99.90
16958;DHT22;8595;52.542;11.974;2023-07-29T15:34:53;28.70;99.90